createdAt,value
2019-03-24T00:00:52.613Z,54.40
2019-03-24T00:04:58.943Z,55.50
2019-03-24T00:09:06.276Z,56.30
2019-03-24T00:13:11.615Z,56.20
2019-03-24T00:17:17.248Z,57.20
2019-03-24T00:21:22.836Z,56.50
2019-03-24T00:25:28.107Z,55.70
2019-03-24T00:29:33.372Z,55.90
2019-03-24T00:33:38.732Z,56.20
2019-03-24T00:37:43.980Z,56.70
2019-03-24T00:41:49.343Z,56.50
2019-03-24T00:45:54.698Z,57.10
2019-03-24T00:49:59.956Z,57.30
2019-03-24T00:54:05.538Z,57.10
2019-03-24T00:58:11.946Z,56.50
2019-03-24T01:02:17.676Z,56.60
2019-03-24T01:06:23.060Z,57.00
2019-03-24T01:10:31.688Z,56.70
2019-03-24T01:14:36.956Z,56.90
2019-03-24T01:18:42.231Z,56.80
2019-03-24T01:22:47.735Z,56.80
2019-03-24T01:26:53.091Z,57.00
2019-03-24T01:30:59.787Z,57.80
2019-03-24T01:35:05.520Z,57.60
2019-03-24T01:39:10.856Z,57.40
2019-03-24T01:43:16.390Z,57.70
2019-03-24T01:47:21.736Z,57.40
2019-03-24T01:51:28.180Z,58.10
2019-03-24T01:55:33.586Z,58.70
2019-03-24T01:59:40.905Z,59.10
2019-03-24T02:03:48.494Z,59.00
2019-03-24T02:07:53.848Z,59.00
2019-03-24T02:11:59.732Z,59.10
2019-03-24T02:16:09.564Z,59.30
2019-03-24T02:20:15.775Z,59.70
2019-03-24T02:24:21.344Z,59.50
2019-03-24T02:28:26.681Z,59.20
2019-03-24T02:32:32.041Z,59.00
2019-03-24T02:36:37.377Z,59.40
2019-03-24T02:40:42.720Z,59.60
2019-03-24T02:44:49.377Z,59.30
2019-03-24T02:48:54.941Z,59.40
2019-03-24T02:53:00.488Z,59.00
2019-03-24T02:57:05.850Z,58.80
2019-03-24T03:01:11.547Z,58.80
2019-03-24T03:05:16.945Z,58.80
2019-03-24T03:09:22.323Z,58.40
2019-03-24T03:13:27.802Z,58.30
2019-03-24T03:17:33.130Z,58.80
2019-03-24T03:21:38.725Z,60.80
2019-03-24T03:25:44.139Z,61.80
2019-03-24T03:29:49.377Z,61.30
2019-03-24T03:33:54.727Z,61.00
2019-03-24T03:38:00.158Z,60.60
2019-03-24T03:42:05.985Z,60.20
2019-03-24T03:46:11.253Z,59.70
2019-03-24T03:50:16.701Z,59.50
2019-03-24T03:54:21.992Z,59.70
2019-03-24T03:58:27.489Z,59.70
2019-03-24T04:02:32.957Z,60.30
2019-03-24T04:06:40.691Z,59.70
2019-03-24T04:10:46.024Z,60.00
2019-03-24T04:14:51.345Z,60.00
2019-03-24T04:18:56.815Z,60.40
2019-03-24T04:23:02.161Z,60.00
2019-03-24T04:27:07.490Z,59.30
2019-03-24T04:31:12.992Z,59.80
2019-03-24T04:35:18.289Z,60.00
2019-03-24T04:39:23.616Z,60.30
2019-03-24T04:43:28.980Z,60.00
2019-03-24T04:47:34.304Z,60.10
2019-03-24T04:51:39.660Z,60.40
2019-03-24T04:55:45.276Z,60.50
2019-03-24T04:59:50.552Z,60.90
2019-03-24T05:03:56.004Z,61.60
2019-03-24T05:08:01.731Z,61.80
2019-03-24T05:12:07.853Z,62.00
2019-03-24T05:16:13.107Z,61.70
2019-03-24T05:20:18.364Z,61.90
2019-03-24T05:24:23.850Z,62.10
2019-03-24T05:28:29.192Z,62.30
2019-03-24T05:32:34.747Z,62.00
2019-03-24T05:36:40.011Z,61.60
2019-03-24T05:40:45.245Z,61.80
2019-03-24T05:44:50.532Z,62.40
2019-03-24T05:48:55.793Z,63.90
2019-03-24T05:53:01.155Z,64.60
2019-03-24T05:57:06.598Z,64.80
2019-03-24T06:01:12.066Z,65.00
2019-03-24T06:05:17.325Z,65.40
2019-03-24T06:09:22.613Z,66.00
2019-03-24T06:13:28.132Z,65.80
2019-03-24T06:17:33.467Z,65.30
2019-03-24T06:21:39.165Z,64.40
2019-03-24T06:25:44.525Z,64.00
2019-03-24T06:29:49.932Z,63.70
2019-03-24T06:33:56.543Z,63.90
2019-03-24T06:38:01.833Z,63.40
2019-03-24T06:42:07.401Z,62.70
2019-03-24T06:46:15.074Z,62.40
2019-03-24T06:50:20.867Z,62.00
2019-03-24T06:54:26.351Z,61.60
2019-03-24T06:58:31.629Z,61.90
2019-03-24T07:02:37.467Z,61.90
2019-03-24T07:06:42.857Z,60.90
2019-03-24T07:10:48.190Z,60.60
2019-03-24T07:14:53.603Z,60.10
2019-03-24T07:19:00.033Z,60.30
2019-03-24T07:23:05.716Z,60.00
2019-03-24T07:27:11.158Z,60.00
2019-03-24T07:31:16.687Z,60.00
2019-03-24T07:35:22.121Z,60.90
2019-03-24T07:39:27.375Z,59.70
2019-03-24T07:43:32.680Z,59.60
2019-03-24T07:47:38.010Z,58.40
2019-03-24T07:51:43.331Z,58.70
2019-03-24T07:55:48.670Z,57.80
2019-03-24T07:59:53.951Z,58.10
2019-03-24T08:03:59.323Z,58.00
2019-03-24T08:08:04.864Z,57.30
2019-03-24T08:12:10.746Z,57.40
2019-03-24T08:16:16.023Z,56.90
2019-03-24T08:20:21.425Z,56.10
2019-03-24T08:24:26.911Z,56.00
2019-03-24T08:28:32.331Z,56.00
2019-03-24T08:32:37.901Z,55.30
2019-03-24T08:36:43.150Z,55.10
2019-03-24T08:40:48.636Z,54.40
2019-03-24T08:44:54.302Z,53.40
2019-03-24T08:48:59.960Z,52.80
2019-03-24T08:53:05.582Z,53.00
2019-03-24T08:57:10.944Z,52.50
2019-03-24T09:01:16.394Z,52.50
2019-03-24T09:05:21.737Z,51.80
2019-03-24T09:09:27.163Z,51.80
2019-03-24T09:13:32.664Z,51.10
2019-03-24T09:17:38.050Z,51.10
2019-03-24T09:21:43.908Z,51.20
2019-03-24T09:25:49.177Z,50.10
2019-03-24T09:29:54.528Z,49.20
2019-03-24T09:33:59.977Z,49.40
2019-03-24T09:38:06.031Z,49.30
2019-03-24T09:42:11.563Z,49.10
2019-03-24T09:46:16.978Z,48.60
2019-03-24T09:50:22.417Z,48.30
2019-03-24T09:54:27.926Z,48.30
2019-03-24T09:58:33.644Z,48.40
2019-03-24T10:02:39.227Z,47.80
2019-03-24T10:06:44.664Z,47.30
2019-03-24T10:10:50.264Z,47.20
2019-03-24T10:14:55.677Z,47.30
2019-03-24T10:19:00.917Z,46.30
2019-03-24T10:23:06.613Z,46.90
2019-03-24T10:27:12.111Z,46.50
2019-03-24T10:31:17.992Z,46.10
2019-03-24T10:35:23.633Z,44.40
2019-03-24T10:39:29.316Z,45.50
2019-03-24T10:43:34.819Z,44.80
2019-03-24T10:47:40.359Z,44.60
2019-03-24T10:51:45.861Z,43.40
2019-03-24T10:55:51.216Z,44.50
2019-03-24T10:59:56.580Z,43.50
2019-03-24T11:04:06.717Z,43.00
2019-03-24T11:08:12.744Z,42.30
2019-03-24T11:12:18.468Z,41.80
2019-03-24T11:16:23.815Z,42.60
2019-03-24T11:20:29.104Z,42.00
2019-03-24T11:24:35.445Z,40.80
2019-03-24T11:28:40.889Z,39.50
2019-03-24T11:32:46.631Z,40.20
2019-03-24T11:36:52.076Z,40.20
2019-03-24T11:40:57.893Z,39.60
2019-03-24T11:45:03.915Z,39.40
2019-03-24T11:49:16.236Z,39.10
2019-03-24T11:53:21.886Z,39.00
2019-03-24T11:57:27.534Z,37.90
2019-03-24T12:01:38.165Z,37.90
2019-03-24T12:05:40.278Z,37.70
2019-03-24T12:09:45.529Z,37.70
2019-03-24T12:13:51.094Z,37.60
2019-03-24T12:17:56.696Z,36.90
2019-03-24T12:22:02.086Z,36.60
2019-03-24T12:26:07.370Z,35.50
2019-03-24T12:30:13.665Z,36.00
2019-03-24T12:34:19.294Z,35.70
2019-03-24T12:38:25.839Z,36.50
2019-03-24T12:42:31.167Z,34.90
2019-03-24T12:46:39.043Z,36.30
2019-03-24T12:50:44.540Z,34.20
2019-03-24T12:54:49.869Z,32.90
2019-03-24T12:58:55.324Z,32.60
2019-03-24T13:03:01.033Z,31.80
2019-03-24T13:07:06.472Z,31.00
2019-03-24T13:11:11.969Z,31.60
2019-03-24T13:15:20.537Z,30.00
2019-03-24T13:19:26.235Z,29.10
2019-03-24T13:23:34.769Z,29.20
2019-03-24T13:27:40.634Z,29.50
2019-03-24T13:31:48.267Z,30.00
2019-03-24T13:36:19.016Z,30.00
2019-03-24T13:40:24.697Z,29.30
2019-03-24T13:44:30.467Z,29.00
2019-03-24T13:48:36.187Z,27.50
2019-03-24T13:52:42.307Z,27.30
2019-03-24T13:56:48.069Z,28.10
2019-03-24T14:00:53.576Z,28.00
2019-03-24T14:04:59.287Z,28.70
2019-03-24T14:09:08.823Z,29.00
2019-03-24T14:13:14.365Z,29.40
2019-03-24T14:17:19.928Z,29.00
2019-03-24T14:21:25.593Z,28.00
2019-03-24T14:25:31.061Z,27.90
2019-03-24T14:29:36.725Z,26.70
2019-03-24T14:33:42.411Z,27.40
2019-03-24T14:37:47.824Z,27.10
2019-03-24T14:41:53.910Z,27.20
2019-03-24T14:45:59.396Z,26.30
2019-03-24T14:50:07.078Z,25.90
2019-03-24T14:54:12.729Z,25.00
2019-03-24T14:58:18.174Z,25.30
2019-03-24T15:02:23.777Z,25.40
2019-03-24T15:06:29.370Z,25.40
2019-03-24T15:10:34.795Z,26.20
2019-03-24T15:14:40.289Z,26.90
2019-03-24T15:18:45.734Z,27.60
2019-03-24T15:22:51.016Z,26.70
2019-03-24T15:26:56.297Z,26.40
2019-03-24T15:31:01.948Z,27.30
2019-03-24T15:35:07.704Z,27.90
2019-03-24T15:39:13.541Z,28.80
2019-03-24T15:43:19.261Z,29.30
2019-03-24T15:47:24.970Z,29.20
2019-03-24T15:51:30.460Z,29.70
2019-03-24T15:55:35.828Z,29.60
2019-03-24T15:59:42.066Z,30.00
2019-03-24T16:03:47.772Z,30.50
2019-03-24T16:07:53.127Z,30.80
2019-03-24T16:11:58.875Z,30.50
2019-03-24T16:16:04.320Z,30.00
2019-03-24T16:20:10.048Z,30.00
2019-03-24T16:24:15.427Z,30.50
2019-03-24T16:28:20.771Z,30.10
2019-03-24T16:32:26.515Z,30.00
2019-03-24T16:36:33.204Z,29.90
2019-03-24T16:40:38.661Z,30.00
2019-03-24T16:44:44.227Z,30.30
2019-03-24T16:48:49.515Z,31.40
2019-03-24T16:52:55.240Z,31.80
2019-03-24T16:57:00.649Z,32.70
2019-03-24T17:01:06.312Z,33.40
2019-03-24T17:05:11.861Z,33.90
2019-03-24T17:09:17.493Z,35.00
2019-03-24T17:13:22.855Z,36.10
2019-03-24T17:17:28.128Z,36.50
2019-03-24T17:21:33.839Z,36.70
2019-03-24T17:25:39.193Z,37.10
2019-03-24T17:29:44.533Z,37.50
2019-03-24T17:33:50.229Z,38.50
2019-03-24T17:37:55.880Z,37.60
2019-03-24T17:42:01.593Z,38.00
2019-03-24T17:46:13.604Z,38.10
2019-03-24T17:50:19.654Z,38.30
2019-03-24T17:54:25.212Z,38.70
2019-03-24T17:58:30.600Z,39.80
2019-03-24T18:02:36.001Z,40.50
2019-03-24T18:06:47.353Z,41.40
2019-03-24T18:10:56.392Z,43.60
2019-03-24T18:15:01.708Z,44.40
2019-03-24T18:19:07.111Z,45.30
2019-03-24T18:23:12.581Z,46.10
2019-03-24T18:27:17.832Z,46.90
2019-03-24T18:31:23.562Z,47.50
2019-03-24T18:35:29.034Z,48.60
2019-03-24T18:39:34.491Z,49.50
2019-03-24T18:43:40.024Z,50.10
2019-03-24T18:47:45.378Z,50.90
2019-03-24T18:51:50.975Z,51.30
2019-03-24T18:55:56.312Z,51.40
2019-03-24T19:00:01.702Z,52.60
2019-03-24T19:04:08.188Z,53.90
2019-03-24T19:08:13.576Z,54.30
2019-03-24T19:12:19.252Z,54.40
2019-03-24T19:16:24.508Z,55.00
2019-03-24T19:20:29.806Z,52.10
2019-03-24T19:24:35.141Z,52.00
2019-03-24T19:28:40.724Z,52.10
2019-03-24T19:32:46.450Z,51.40
2019-03-24T19:36:51.783Z,50.80
2019-03-24T19:41:00.712Z,51.30
2019-03-24T19:45:06.533Z,51.30
2019-03-24T19:49:11.930Z,50.70
2019-03-24T19:53:17.353Z,51.20
2019-03-24T19:57:22.703Z,50.80
2019-03-24T20:01:28.401Z,51.40
2019-03-24T20:05:34.118Z,51.70
2019-03-24T20:09:39.613Z,51.60
2019-03-24T20:13:44.989Z,52.70
2019-03-24T20:17:50.258Z,53.40
2019-03-24T20:21:56.079Z,54.70
2019-03-24T20:26:01.538Z,54.80
2019-03-24T20:30:07.749Z,54.60
2019-03-24T20:34:13.401Z,55.30
2019-03-24T20:38:20.004Z,55.40
2019-03-24T20:42:25.538Z,56.50
2019-03-24T20:46:30.843Z,57.00
2019-03-24T20:50:36.217Z,57.00
2019-03-24T20:54:41.865Z,57.40
2019-03-24T20:58:47.288Z,57.70
2019-03-24T21:02:52.843Z,58.00
2019-03-24T21:06:58.300Z,58.60
2019-03-24T21:11:03.900Z,58.60
2019-03-24T21:15:11.463Z,57.90
2019-03-24T21:19:17.215Z,57.80
2019-03-24T21:23:29.420Z,58.30
2019-03-24T21:27:30.068Z,59.30
2019-03-24T21:31:36.504Z,60.10
2019-03-24T21:35:42.019Z,60.10
2019-03-24T21:39:47.384Z,60.10
2019-03-24T21:43:53.111Z,60.10
2019-03-24T21:47:58.531Z,61.00
2019-03-24T21:52:04.380Z,62.00
2019-03-24T21:56:09.840Z,62.20
2019-03-24T22:00:17.515Z,62.30
2019-03-24T22:04:23.434Z,62.00
2019-03-24T22:08:30.011Z,62.60
2019-03-24T22:12:35.824Z,63.10
2019-03-24T22:16:41.260Z,63.00
2019-03-24T22:20:49.067Z,62.80
2019-03-24T22:24:53.829Z,63.30
2019-03-24T22:28:59.140Z,64.00
2019-03-24T22:33:05.036Z,63.70
2019-03-24T22:37:15.794Z,64.40
2019-03-24T22:41:17.686Z,64.00
2019-03-24T22:45:23.356Z,63.70
2019-03-24T22:49:28.612Z,63.30
2019-03-24T22:53:35.017Z,64.40
2019-03-24T22:57:40.588Z,65.80
2019-03-24T23:01:46.366Z,66.30
2019-03-24T23:05:51.832Z,65.90
2019-03-24T23:09:57.124Z,65.50
2019-03-24T23:14:04.558Z,64.80
2019-03-24T23:18:09.812Z,64.20
2019-03-24T23:22:15.509Z,64.40
2019-03-24T23:26:20.835Z,64.20
2019-03-24T23:30:26.183Z,64.60
2019-03-24T23:34:32.640Z,65.80
2019-03-24T23:38:37.904Z,65.20
2019-03-24T23:42:43.642Z,65.90
2019-03-24T23:46:49.063Z,65.70
2019-03-24T23:50:54.423Z,65.60
2019-03-24T23:55:00.723Z,66.00
2019-03-24T23:59:07.374Z,66.00
